Weather at Brookhaven Airport

Public forecast

Using degrees Fahrenheit for public forecast. Weather courtesy of forecast.io.

Current aviation weather report (METAR) for Brookhaven Airport

Retrieved 2020/11/30 01:24 UTC (0 seconds ago):

KHWV 300124Z AUTO 00000KT 4SM HZ CLR 03/00 A3013 RMK AO2 T00330000 TSNO

Closest aviation forecast (TAF) to Brookhaven Airport

Closest forecast is Long Island Mac Arthur Airport, 10.6 nm (19.7 km) W. Retrieved 2020-11-30 00:42 UTC (30 minutes ago):

TAF KISP 292339Z 3000/3024 21004KT P6SM SCT250 FM300500 17004KT P6SM FEW035 BKN250 FM300900 12006KT P6SM SCT025 OVC050 FM301100 12008KT P6SM BKN025 OVC050 FM301400 13010G16KT 3SM RA BR OVC015 FM301700 15022G35KT 1SM +RA BR OVC005 WS020/16055KT FM301900 15027G40KT 2SM RA BR OVC004 WS020/17070KT FM302300 18022G33KT 4SM SHRA BR OVC005 WS020/18060KT